Carnival Valor — H3VR — position and weather

sailwx.info

Track history (hours):
 
Tides and Currents Weather Stations Pressure Air Temp Water Temp Dewpoint Dewpoint Depression Visibility Wind Speed Wind Dir Waves Ship Positions

Carnival Valor

Last reported at 2018-May-25 18:00 UTC. Time now 2018-May-26 00:42 UTC.
Position N 25°06' W 090°18'.

Type: Ship. MMSI: 354298000.

Wind from 080 at 23 knots

Barometer 1014.0 mb
Air temperature 24.0 ° C
Visibility: greater than 10.8 NM
Dewpoint 19.4 ° C
Water temperature 28.0 ° C

Date/timePositionNaut miles runAvg speedWind from/ knotsBaromVisibWave heightAir tempDewpointWater temp
2018-May-25 18:00N 25°06' W 090°18'30117.6 080 / 231014.010.8 24.019.428.0
2018-May-25 00:52N 28°54' W 093°59'817.4
2018-May-25 00:25N 28°59' W 094°07'916.1
2018-May-24 23:51N 29°04' W 094°15'515.0
2018-May-24 23:30N 29°07' W 094°20'914.8
2018-May-24 22:55N 29°11' W 094°29'614.7
2018-May-24 22:29N 29°15' W 094°34'612.3
2018-May-24 22:00N 29°19' W 094°39'613.0
2018-May-24 21:30N 29°20' W 094°46'2 4.1
2018-May-24 20:59N 29°19' W 094°48'0 0.0
2018-May-24 20:29N 29°19' W 094°48'0 0.0
2018-May-24 19:55N 29°19' W 094°48'0 0.0
2018-May-24 19:28N 29°19' W 094°48'0 0.0
2018-May-24 18:55N 29°19' W 094°48'0 0.0
2018-May-24 18:28N 29°19' W 094°48'0 0.0
2018-May-24 17:45N 29°19' W 094°48'0 0.0
2018-May-24 17:27N 29°19' W 094°48'0 0.0
2018-May-24 17:00N 29°19' W 094°48'0 0.0
2018-May-24 16:30N 29°19' W 094°48'0 0.0
2018-May-24 16:00N 29°19' W 094°48'0 0.0
2018-May-24 15:29N 29°19' W 094°48'0 0.0
2018-May-24 14:59N 29°19' W 094°48'0 0.0
2018-May-24 14:30N 29°19' W 094°48'0 0.0
2018-May-24 14:00N 29°19' W 094°48'0 0.0
2018-May-24 13:30N 29°19' W 094°48'31 6.7
2018-May-24 08:57N 28°55' W 094°25'48915.5
2018-May-23 01:27N 21°50' W 089°57'715.7
2018-May-23 01:00N 21°44' W 089°53'815.6
2018-May-23 00:30N 21°37' W 089°48'815.3
2018-May-23 00:00N 21°31' W 089°44'611.9
2018-May-22 23:30N 21°25' W 089°42'510.0
2018-May-22 23:01N 21°21' W 089°41'0 0.1
2018-May-22 22:28N 21°21' W 089°41'0 0.0
2018-May-22 21:58N 21°21' W 089°41'0 0.0
2018-May-22 21:28N 21°21' W 089°41'0 0.0
2018-May-22 21:00N 21°21' W 089°41'0 0.0
2018-May-22 20:30N 21°21' W 089°41'0 0.0
2018-May-22 20:00N 21°21' W 089°41'0 0.0
2018-May-22 19:30N 21°21' W 089°41'0 0.0
2018-May-22 18:59N 21°21' W 089°41'0 0.0
2018-May-22 18:29N 21°21' W 089°41'0 0.0
2018-May-22 17:59N 21°21' W 089°41'0 0.0
2018-May-22 17:29N 21°21' W 089°41'0 0.0
2018-May-22 16:59N 21°21' W 089°41'0 0.0
2018-May-22 16:28N 21°21' W 089°41'0 0.0
2018-May-22 15:58N 21°21' W 089°41'0 0.0
2018-May-22 15:28N 21°21' W 089°41'0 0.0
2018-May-22 14:58N 21°21' W 089°41'0 0.0
2018-May-22 14:30N 21°21' W 089°41'2 4.4
2018-May-22 14:00N 21°23' W 089°41'510.7
2018-May-22 13:31N 21°28' W 089°40'918.2
2018-May-22 13:00N 21°36' W 089°35'918.4
2018-May-22 12:30N 21°42' W 089°28'1119.2
2018-May-22 11:56N 21°45' W 089°17'14812.7
2018-May-22 00:21N 20°37' W 086°57'617.4
2018-May-22 00:00N 20°31' W 086°60'3 6.3
2018-May-21 23:30N 20°29' W 086°59'0 0.0
2018-May-21 23:00N 20°29' W 086°59'0 0.0
2018-May-21 22:29N 20°29' W 086°59'0 0.0
2018-May-21 21:59N 20°29' W 086°59'0 0.0
2018-May-21 21:29N 20°29' W 086°59'0 0.0
2018-May-21 20:56N 20°29' W 086°59'0 0.0
2018-May-21 20:29N 20°29' W 086°59'0 0.0
2018-May-21 19:58N 20°29' W 086°59'0 0.0
2018-May-21 19:28N 20°29' W 086°59'0 0.0
2018-May-21 18:58N 20°29' W 086°59'0 0.0
2018-May-21 18:28N 20°29' W 086°59'0 0.0
2018-May-21 18:00N 20°29' W 086°59'0 0.0
2018-May-21 17:30N 20°29' W 086°59'0 0.0
2018-May-21 17:00N 20°29' W 086°59'0 0.0
2018-May-21 16:27N 20°29' W 086°59'0 0.0
2018-May-21 16:00N 20°29' W 086°59'0 0.0
2018-May-21 15:29N 20°29' W 086°59'0 1.0
2018-May-21 15:00N 20°29' W 086°59'510.4
2018-May-21 14:30N 20°34' W 086°59'918.0
2018-May-21 14:00N 20°42' W 086°54'60416.8
2018-May-20 02:03N 28°41' W 093°39'2417.1
2018-May-20 00:39N 28°55' W 094°01'415.2
2018-May-20 00:23N 28°57' W 094°05'2915.0
2018-May-19 22:26N 29°14' W 094°33'613.9
2018-May-19 22:00N 29°18' W 094°37'613.0
2018-May-19 21:31N 29°21' W 094°44'4 6.8
2018-May-19 20:54N 29°19' W 094°48'0 0.0
2018-May-19 20:18N 29°19' W 094°48'0 0.0
2018-May-19 19:24N 29°19' W 094°48'0 0.0
2018-May-19 19:00N 29°19' W 094°48'0 0.0
2018-May-19 17:35N 29°19' W 094°48'0 0.0
2018-May-19 17:29N 29°19' W 094°48'0 0.0
2018-May-19 16:59N 29°19' W 094°48'0 0.0
2018-May-19 16:28N 29°19' W 094°48'0 0.0
2018-May-19 15:55N 29°19' W 094°48'0 0.0
2018-May-19 15:28N 29°19' W 094°48'0 0.0
2018-May-19 14:58N 29°19' W 094°48'0 0.0
2018-May-19 14:28N 29°19' W 094°48'0 0.0
2018-May-19 14:00N 29°19' W 094°48'0 0.0
2018-May-19 13:30N 29°19' W 094°48'0 0.0
2018-May-19 13:00N 29°19' W 094°48'0 0.0
2018-May-19 12:31N 29°19' W 094°48'1 2.4
2018-May-19 12:01N 29°19' W 094°47'510.0
2018-May-19 11:30N 29°20' W 094°41'713.9
2018-May-19 11:00N 29°17' W 094°34'712.6
2018-May-19 10:29N 29°13' W 094°28'1612.4
2018-May-19 09:13N 28°57' W 094°25'513.4
2018-May-19 08:51N 28°53' W 094°25'1113.4
2018-May-19 08:01N 28°41' W 094°25'013.1
2018-May-19 07:59N 28°41' W 094°25'713.3
2018-May-19 07:28N 28°34' W 094°25'46915.7
2018-May-18 01:36N 21°52' W 089°59'216.0
2018-May-18 01:28N 21°50' W 089°58'715.7
2018-May-18 01:01N 21°44' W 089°53'815.6
2018-May-18 00:31N 21°37' W 089°49'815.4
2018-May-18 00:01N 21°31' W 089°44'612.9
2018-May-17 23:30N 21°25' W 089°41'5 9.3
2018-May-17 23:00N 21°21' W 089°41'0 0.0
2018-May-17 22:30N 21°21' W 089°41'0 0.0
2018-May-17 22:00N 21°21' W 089°41'0 0.0
2018-May-17 21:30N 21°21' W 089°41'0 0.0
2018-May-17 20:56N 21°21' W 089°41'0 0.0
2018-May-17 20:29N 21°21' W 089°41'0 0.0
2018-May-17 19:59N 21°21' W 089°41'0 0.0
2018-May-17 19:29N 21°21' W 089°41'0 0.0
2018-May-17 18:58N 21°21' W 089°41'0 0.0
2018-May-17 18:28N 21°21' W 089°41'0 0.0
2018-May-17 17:58N 21°21' W 089°41'0 0.0
2018-May-17 17:28N 21°21' W 089°41'0 0.0
2018-May-17 16:58N 21°21' W 089°41'0 0.0
2018-May-17 16:30N 21°21' W 089°41'0 0.0
2018-May-17 16:00N 21°21' W 089°41'0 0.0
2018-May-17 15:27N 21°21' W 089°41'0 0.0
2018-May-17 15:00N 21°21' W 089°41'0 0.2
2018-May-17 14:30N 21°21' W 089°41'3 7.0
2018-May-17 14:00N 21°24' W 089°41'611.7
2018-May-17 13:30N 21°29' W 089°39'917.9
2018-May-17 13:01N 21°37' W 089°34'918.2
2018-May-17 12:31N 21°43' W 089°26'1019.1
2018-May-17 12:00N 21°45' W 089°16'14711.9
2018-May-16 23:44N 20°35' W 086°58'415.9
2018-May-16 23:30N 20°32' W 087°00'4 7.7
2018-May-16 23:00N 20°29' W 086°59'0 0.0
2018-May-16 22:30N 20°29' W 086°59'0 0.0
2018-May-16 22:00N 20°29' W 086°59'0 0.0
2018-May-16 21:29N 20°29' W 086°59'0 0.0
2018-May-16 20:59N 20°29' W 086°59'0 0.0
2018-May-16 20:29N 20°29' W 086°59'0 0.0
2018-May-16 20:00N 20°29' W 086°59'0 0.0
2018-May-16 19:25N 20°29' W 086°59'0 0.0
2018-May-16 18:58N 20°29' W 086°59'0 0.0
2018-May-16 18:28N 20°29' W 086°59'0 0.0
2018-May-16 17:58N 20°29' W 086°59'0 0.0
2018-May-16 17:28N 20°29' W 086°59'0 0.0
2018-May-16 17:00N 20°29' W 086°59'0 0.0
2018-May-16 16:30N 20°29' W 086°59'0 0.0
2018-May-16 16:00N 20°29' W 086°59'0 0.0
2018-May-16 15:30N 20°29' W 086°59'0 0.0
2018-May-16 15:00N 20°29' W 086°59'0 0.0
2018-May-16 14:29N 20°29' W 086°59'0 0.0
2018-May-16 14:00N 20°29' W 086°59'1 1.5
2018-May-16 13:30N 20°29' W 086°59'612.0
2018-May-16 13:00N 20°35' W 086°58'11815.9
2018-May-16 05:32N 22°30' W 087°30'119.8
2018-May-16 05:29N 22°31' W 087°30'  
Track history (hours):
 
Tides and Currents Weather Stations Pressure Air Temp Water Temp Dewpoint Dewpoint Depression Visibility Wind Speed Wind Dir Waves Ship Positions

Carnival Valor

Last reported at 2018-May-25 18:00 UTC. Time now 2018-May-26 00:42 UTC.
Position N 25°06' W 090°18'.

Type: Ship. MMSI: 354298000.

Wind from 080 at 23 knots

Barometer 1014.0 mb
Air temperature 24.0 ° C
Visibility: greater than 10.8 NM
Dewpoint 19.4 ° C
Water temperature 28.0 ° C

Date/timePositionNaut miles runAvg speedWind from/ knotsBaromVisibWave heightAir tempDewpointWater temp
2018-May-25 18:00N 25°06' W 090°18'30117.6 080 / 231014.010.8 24.019.428.0
2018-May-25 00:52N 28°54' W 093°59'817.4
2018-May-25 00:25N 28°59' W 094°07'916.1
2018-May-24 23:51N 29°04' W 094°15'515.0
2018-May-24 23:30N 29°07' W 094°20'914.8
2018-May-24 22:55N 29°11' W 094°29'614.7
2018-May-24 22:29N 29°15' W 094°34'612.3
2018-May-24 22:00N 29°19' W 094°39'613.0
2018-May-24 21:30N 29°20' W 094°46'2 4.1
2018-May-24 20:59N 29°19' W 094°48'0 0.0
2018-May-24 20:29N 29°19' W 094°48'0 0.0
2018-May-24 19:55N 29°19' W 094°48'0 0.0
2018-May-24 19:28N 29°19' W 094°48'0 0.0
2018-May-24 18:55N 29°19' W 094°48'0 0.0
2018-May-24 18:28N 29°19' W 094°48'0 0.0
2018-May-24 17:45N 29°19' W 094°48'0 0.0
2018-May-24 17:27N 29°19' W 094°48'0 0.0
2018-May-24 17:00N 29°19' W 094°48'0 0.0
2018-May-24 16:30N 29°19' W 094°48'0 0.0
2018-May-24 16:00N 29°19' W 094°48'0 0.0
2018-May-24 15:29N 29°19' W 094°48'0 0.0
2018-May-24 14:59N 29°19' W 094°48'0 0.0
2018-May-24 14:30N 29°19' W 094°48'0 0.0
2018-May-24 14:00N 29°19' W 094°48'0 0.0
2018-May-24 13:30N 29°19' W 094°48'31 6.7
2018-May-24 08:57N 28°55' W 094°25'48915.5
2018-May-23 01:27N 21°50' W 089°57'715.7
2018-May-23 01:00N 21°44' W 089°53'815.6
2018-May-23 00:30N 21°37' W 089°48'815.3
2018-May-23 00:00N 21°31' W 089°44'611.9
2018-May-22 23:30N 21°25' W 089°42'510.0
2018-May-22 23:01N 21°21' W 089°41'0 0.1
2018-May-22 22:28N 21°21' W 089°41'0 0.0
2018-May-22 21:58N 21°21' W 089°41'0 0.0
2018-May-22 21:28N 21°21' W 089°41'0 0.0
2018-May-22 21:00N 21°21' W 089°41'0 0.0
2018-May-22 20:30N 21°21' W 089°41'0 0.0
2018-May-22 20:00N 21°21' W 089°41'0 0.0
2018-May-22 19:30N 21°21' W 089°41'0 0.0
2018-May-22 18:59N 21°21' W 089°41'0 0.0
2018-May-22 18:29N 21°21' W 089°41'0 0.0
2018-May-22 17:59N 21°21' W 089°41'0 0.0
2018-May-22 17:29N 21°21' W 089°41'0 0.0
2018-May-22 16:59N 21°21' W 089°41'0 0.0
2018-May-22 16:28N 21°21' W 089°41'0 0.0
2018-May-22 15:58N 21°21' W 089°41'0 0.0
2018-May-22 15:28N 21°21' W 089°41'0 0.0
2018-May-22 14:58N 21°21' W 089°41'0 0.0
2018-May-22 14:30N 21°21' W 089°41'2 4.4
2018-May-22 14:00N 21°23' W 089°41'510.7
2018-May-22 13:31N 21°28' W 089°40'918.2
2018-May-22 13:00N 21°36' W 089°35'918.4
2018-May-22 12:30N 21°42' W 089°28'1119.2
2018-May-22 11:56N 21°45' W 089°17'14812.7
2018-May-22 00:21N 20°37' W 086°57'617.4
2018-May-22 00:00N 20°31' W 086°60'3 6.3
2018-May-21 23:30N 20°29' W 086°59'0 0.0
2018-May-21 23:00N 20°29' W 086°59'0 0.0
2018-May-21 22:29N 20°29' W 086°59'0 0.0
2018-May-21 21:59N 20°29' W 086°59'0 0.0
2018-May-21 21:29N 20°29' W 086°59'0 0.0
2018-May-21 20:56N 20°29' W 086°59'0 0.0
2018-May-21 20:29N 20°29' W 086°59'0 0.0
2018-May-21 19:58N 20°29' W 086°59'0 0.0
2018-May-21 19:28N 20°29' W 086°59'0 0.0
2018-May-21 18:58N 20°29' W 086°59'0 0.0
2018-May-21 18:28N 20°29' W 086°59'0 0.0
2018-May-21 18:00N 20°29' W 086°59'0 0.0
2018-May-21 17:30N 20°29' W 086°59'0 0.0
2018-May-21 17:00N 20°29' W 086°59'0 0.0
2018-May-21 16:27N 20°29' W 086°59'0 0.0
2018-May-21 16:00N 20°29' W 086°59'0 0.0
2018-May-21 15:29N 20°29' W 086°59'0 1.0
2018-May-21 15:00N 20°29' W 086°59'510.4
2018-May-21 14:30N 20°34' W 086°59'918.0
2018-May-21 14:00N 20°42' W 086°54'60416.8
2018-May-20 02:03N 28°41' W 093°39'2417.1
2018-May-20 00:39N 28°55' W 094°01'415.2
2018-May-20 00:23N 28°57' W 094°05'2915.0
2018-May-19 22:26N 29°14' W 094°33'613.9
2018-May-19 22:00N 29°18' W 094°37'613.0
2018-May-19 21:31N 29°21' W 094°44'4 6.8
2018-May-19 20:54N 29°19' W 094°48'0 0.0
2018-May-19 20:18N 29°19' W 094°48'0 0.0
2018-May-19 19:24N 29°19' W 094°48'0 0.0
2018-May-19 19:00N 29°19' W 094°48'0 0.0
2018-May-19 17:35N 29°19' W 094°48'0 0.0
2018-May-19 17:29N 29°19' W 094°48'0 0.0
2018-May-19 16:59N 29°19' W 094°48'0 0.0
2018-May-19 16:28N 29°19' W 094°48'0 0.0
2018-May-19 15:55N 29°19' W 094°48'0 0.0
2018-May-19 15:28N 29°19' W 094°48'0 0.0
2018-May-19 14:58N 29°19' W 094°48'0 0.0
2018-May-19 14:28N 29°19' W 094°48'0 0.0
2018-May-19 14:00N 29°19' W 094°48'0 0.0
2018-May-19 13:30N 29°19' W 094°48'0 0.0
2018-May-19 13:00N 29°19' W 094°48'0 0.0
2018-May-19 12:31N 29°19' W 094°48'1 2.4
2018-May-19 12:01N 29°19' W 094°47'510.0
2018-May-19 11:30N 29°20' W 094°41'713.9
2018-May-19 11:00N 29°17' W 094°34'712.6
2018-May-19 10:29N 29°13' W 094°28'1612.4
2018-May-19 09:13N 28°57' W 094°25'513.4
2018-May-19 08:51N 28°53' W 094°25'1113.4
2018-May-19 08:01N 28°41' W 094°25'013.1
2018-May-19 07:59N 28°41' W 094°25'713.3
2018-May-19 07:28N 28°34' W 094°25'46915.7
2018-May-18 01:36N 21°52' W 089°59'216.0
2018-May-18 01:28N 21°50' W 089°58'715.7
2018-May-18 01:01N 21°44' W 089°53'815.6
2018-May-18 00:31N 21°37' W 089°49'815.4
2018-May-18 00:01N 21°31' W 089°44'612.9
2018-May-17 23:30N 21°25' W 089°41'5 9.3
2018-May-17 23:00N 21°21' W 089°41'0 0.0
2018-May-17 22:30N 21°21' W 089°41'0 0.0
2018-May-17 22:00N 21°21' W 089°41'0 0.0
2018-May-17 21:30N 21°21' W 089°41'0 0.0
2018-May-17 20:56N 21°21' W 089°41'0 0.0
2018-May-17 20:29N 21°21' W 089°41'0 0.0
2018-May-17 19:59N 21°21' W 089°41'0 0.0
2018-May-17 19:29N 21°21' W 089°41'0 0.0
2018-May-17 18:58N 21°21' W 089°41'0 0.0
2018-May-17 18:28N 21°21' W 089°41'0 0.0
2018-May-17 17:58N 21°21' W 089°41'0 0.0
2018-May-17 17:28N 21°21' W 089°41'0 0.0
2018-May-17 16:58N 21°21' W 089°41'0 0.0
2018-May-17 16:30N 21°21' W 089°41'0 0.0
2018-May-17 16:00N 21°21' W 089°41'0 0.0
2018-May-17 15:27N 21°21' W 089°41'0 0.0
2018-May-17 15:00N 21°21' W 089°41'0 0.2
2018-May-17 14:30N 21°21' W 089°41'3 7.0
2018-May-17 14:00N 21°24' W 089°41'611.7
2018-May-17 13:30N 21°29' W 089°39'917.9
2018-May-17 13:01N 21°37' W 089°34'918.2
2018-May-17 12:31N 21°43' W 089°26'1019.1
2018-May-17 12:00N 21°45' W 089°16'14711.9
2018-May-16 23:44N 20°35' W 086°58'415.9
2018-May-16 23:30N 20°32' W 087°00'4 7.7
2018-May-16 23:00N 20°29' W 086°59'0 0.0
2018-May-16 22:30N 20°29' W 086°59'0 0.0
2018-May-16 22:00N 20°29' W 086°59'0 0.0
2018-May-16 21:29N 20°29' W 086°59'0 0.0
2018-May-16 20:59N 20°29' W 086°59'0 0.0
2018-May-16 20:29N 20°29' W 086°59'0 0.0
2018-May-16 20:00N 20°29' W 086°59'0 0.0
2018-May-16 19:25N 20°29' W 086°59'0 0.0
2018-May-16 18:58N 20°29' W 086°59'0 0.0
2018-May-16 18:28N 20°29' W 086°59'0 0.0
2018-May-16 17:58N 20°29' W 086°59'0 0.0
2018-May-16 17:28N 20°29' W 086°59'0 0.0
2018-May-16 17:00N 20°29' W 086°59'0 0.0
2018-May-16 16:30N 20°29' W 086°59'0 0.0
2018-May-16 16:00N 20°29' W 086°59'0 0.0
2018-May-16 15:30N 20°29' W 086°59'0 0.0
2018-May-16 15:00N 20°29' W 086°59'0 0.0
2018-May-16 14:29N 20°29' W 086°59'0 0.0
2018-May-16 14:00N 20°29' W 086°59'1 1.5
2018-May-16 13:30N 20°29' W 086°59'612.0
2018-May-16 13:00N 20°35' W 086°58'11815.9
2018-May-16 05:32N 22°30' W 087°30'119.8
2018-May-16 05:29N 22°31' W 087°30'  

Dump ship's entire track history